Time;durP1;ratioP1;P1;durP2;ratioP2;P2;SDS_P1;SDS_P2;PMS_P1;PMS_P2;Temp;Humidity;BMP_temperature;BMP_pressure;BME280_temperature;BME280_humidity;BME280_pressure;Samples;Min_cycle;Max_cycle;Signal;HPM_P1;HPM_P2
2023/01/05 00:02:19;;;;;;;13.87;3.40;;;10.50;99.90;;;;;;5076042;28;20220;-83
2023/01/05 00:04:46;;;;;;;14.00;3.43;;;10.40;99.90;;;;;;5075515;28;20289;-82
2023/01/05 00:07:13;;;;;;;11.60;2.60;;;10.50;99.90;;;;;;5072292;28;20565;-83
2023/01/05 00:09:41;;;;;;;12.97;2.57;;;10.60;99.90;;;;;;5075142;28;20209;-83
2023/01/05 00:23:15;;;;;;;9.77;2.27;;;10.70;99.90;;;;;;5074257;28;20243;-82
2023/01/05 00:25:43;;;;;;;12.93;2.40;;;10.80;99.90;;;;;;5073434;28;20225;-82
2023/01/05 00:28:10;;;;;;;8.37;2.10;;;10.70;99.90;;;;;;5074100;28;20202;-81
2023/01/05 00:30:40;;;;;;;5.93;2.13;;;10.80;99.90;;;;;;5074438;28;20221;-82
2023/01/05 00:33:08;;;;;;;10.27;2.70;;;10.60;99.90;;;;;;5074442;28;20218;-83
2023/01/05 00:35:35;;;;;;;10.07;2.53;;;10.70;99.90;;;;;;5069517;28;20195;-82
2023/01/05 00:38:02;;;;;;;9.60;2.10;;;10.60;99.90;;;;;;5052236;28;20305;-82
2023/01/05 00:40:28;;;;;;;8.20;2.33;;;10.70;99.90;;;;;;5071478;28;20199;-82
2023/01/05 00:42:56;;;;;;;11.63;2.40;;;10.70;99.90;;;;;;5062185;28;20222;-82
2023/01/05 00:45:23;;;;;;;11.37;2.60;;;10.70;99.90;;;;;;5072123;28;20572;-82
2023/01/05 00:47:52;;;;;;;13.03;2.67;;;10.60;99.90;;;;;;5068114;28;20656;-82
2023/01/05 00:50:20;;;;;;;12.73;2.73;;;10.70;99.90;;;;;;5054173;28;20210;-82
2023/01/05 00:52:47;;;;;;;12.27;2.10;;;10.50;99.90;;;;;;5070293;28;20226;-82
2023/01/05 00:55:14;;;;;;;9.20;2.20;;;10.50;99.90;;;;;;5073086;28;20234;-82
2023/01/05 00:57:41;;;;;;;9.73;2.30;;;10.50;99.90;;;;;;5073675;28;20214;-82
2023/01/05 01:00:13;;;;;;;6.97;2.20;;;10.50;99.90;;;;;;5073083;28;20208;-82
2023/01/05 01:02:40;;;;;;;10.23;2.40;;;10.50;99.90;;;;;;5071189;28;20575;-82
2023/01/05 01:05:08;;;;;;;10.93;2.87;;;10.50;99.90;;;;;;5073443;28;20206;-82
2023/01/05 01:07:35;;;;;;;13.90;2.87;;;10.40;99.90;;;;;;5073184;28;20225;-82
2023/01/05 01:10:02;;;;;;;8.60;2.80;;;10.40;99.90;;;;;;5073122;28;20280;-82
2023/01/05 01:12:28;;;;;;;10.13;2.83;;;10.50;99.90;;;;;;5056963;28;20564;-82
2023/01/05 01:14:55;;;;;;;9.23;2.00;;;10.50;99.90;;;;;;5056403;28;20224;-82
2023/01/05 01:17:23;;;;;;;12.70;2.20;;;10.40;99.90;;;;;;5069531;28;20202;-82
2023/01/05 01:19:50;;;;;;;9.00;2.20;;;10.50;99.90;;;;;;5065694;28;20229;-81
2023/01/05 01:22:17;;;;;;;8.40;2.17;;;10.50;99.90;;;;;;5067250;28;20651;-81
2023/01/05 01:24:44;;;;;;;9.27;2.27;;;10.50;99.90;;;;;;5054890;28;20206;-81
2023/01/05 01:27:11;;;;;;;11.83;2.70;;;10.50;99.90;;;;;;5070883;28;20206;-82
2023/01/05 01:29:37;;;;;;;9.63;2.60;;;10.50;99.90;;;;;;5056745;28;20199;-83
2023/01/05 01:32:05;;;;;;;9.30;2.40;;;10.60;99.90;;;;;;5065057;28;20229;-82
2023/01/05 01:34:33;;;;;;;9.90;2.40;;;10.60;99.90;;;;;;5071626;28;20206;-81
2023/01/05 01:37:00;;;;;;;12.33;2.77;;;10.60;99.90;;;;;;5062724;28;20215;-84
2023/01/05 01:39:27;;;;;;;11.03;2.50;;;10.60;99.90;;;;;;5060992;28;20214;-82
2023/01/05 01:41:53;;;;;;;12.93;2.37;;;10.60;99.90;;;;;;5071908;28;20230;-82
2023/01/05 01:44:50;;;;;;;15.07;2.97;;;10.60;99.90;;;;;;5071634;28;20696;-82
2023/01/05 01:47:22;;;;;;;12.03;3.10;;;10.60;99.90;;;;;;5066130;28;20198;-82
2023/01/05 01:49:51;;;;;;;8.27;2.50;;;10.50;99.90;;;;;;5059384;28;20213;-83
2023/01/05 01:52:19;;;;;;;15.37;2.70;;;10.50;99.90;;;;;;5060870;28;20600;-82
2023/01/05 01:54:46;;;;;;;12.67;3.27;;;10.60;99.90;;;;;;5068193;28;20206;-82
2023/01/05 01:57:15;;;;;;;14.80;3.00;;;10.50;99.90;;;;;;5070038;28;20199;-82
2023/01/05 01:59:42;;;;;;;14.60;2.80;;;10.50;99.90;;;;;;5055108;28;20221;-82
2023/01/05 02:02:09;;;;;;;14.07;3.00;;;10.50;99.90;;;;;;5068912;28;20229;-81
2023/01/05 02:04:37;;;;;;;15.23;3.67;;;10.50;99.90;;;;;;5076512;28;20220;-82
2023/01/05 02:07:08;;;;;;;13.67;2.80;;;10.60;99.90;;;;;;5072824;28;20198;-82
2023/01/05 02:09:35;;;;;;;11.53;2.53;;;10.60;99.90;;;;;;5075888;28;20399;-82
2023/01/05 02:12:10;;;;;;;13.40;2.87;;;10.60;99.90;;;;;;5076426;28;20218;-82
2023/01/05 02:14:45;;;;;;;16.97;3.80;;;10.70;99.90;;;;;;5076745;28;20206;-82
2023/01/05 02:17:21;;;;;;;12.40;2.57;;;10.70;99.90;;;;;;5074859;28;20202;-82
2023/01/05 02:20:24;;;;;;;10.07;2.37;;;10.60;99.90;;;;;;5074739;28;20716;-82
2023/01/05 02:23:21;;;;;;;13.97;2.60;;;10.50;99.90;;;;;;5072163;28;20226;-81
2023/01/05 02:26:24;;;;;;;12.73;4.93;;;10.50;99.90;;;;;;5061532;28;20203;-81
2023/01/05 02:29:12;;;;;;;10.43;2.47;;;10.40;99.90;;;;;;5055770;28;20205;-83
2023/01/05 02:31:43;;;;;;;10.77;2.60;;;10.40;99.90;;;;;;5055562;28;20206;-82
2023/01/05 02:34:20;;;;;;;10.63;2.97;;;10.50;99.90;;;;;;5057110;28;20203;-82
2023/01/05 02:36:52;;;;;;;14.90;2.60;;;10.50;99.90;;;;;;5056293;28;20202;-83
2023/01/05 02:39:25;;;;;;;13.80;2.63;;;10.50;99.90;;;;;;5055531;28;20230;-83
2023/01/05 02:41:55;;;;;;;9.00;2.40;;;10.50;99.90;;;;;;5069578;28;20234;-83
2023/01/05 02:44:23;;;;;;;8.10;2.67;;;10.50;99.90;;;;;;5077233;28;20202;-82
2023/01/05 02:47:01;;;;;;;8.17;2.43;;;10.50;99.90;;;;;;5075101;28;20206;-82
2023/01/05 02:49:29;;;;;;;10.03;2.47;;;10.60;99.90;;;;;;5071981;28;20208;-82
2023/01/05 02:51:58;;;;;;;11.03;2.30;;;10.60;99.90;;;;;;5074287;28;20237;-83
2023/01/05 02:54:29;;;;;;;11.33;2.53;;;10.50;99.90;;;;;;5075942;28;20210;-81
2023/01/05 02:57:00;;;;;;;10.30;3.40;;;10.50;99.90;;;;;;5071413;28;20589;-82
2023/01/05 02:59:32;;;;;;;8.73;2.80;;;10.40;99.90;;;;;;5072621;28;20225;-83
2023/01/05 03:02:05;;;;;;;11.47;2.83;;;10.50;99.90;;;;;;5054423;28;20317;-84
2023/01/05 03:04:38;;;;;;;14.77;2.63;;;10.50;99.90;;;;;;5066971;28;20203;-82
2023/01/05 03:07:09;;;;;;;10.77;2.97;;;10.50;99.90;;;;;;5071920;28;20647;-83
2023/01/05 03:09:39;;;;;;;16.37;3.40;;;10.50;99.90;;;;;;5068854;28;20216;-82
2023/01/05 03:14:59;;;;;;;10.13;2.63;;;10.30;99.90;;;;;;5070999;28;20208;-82
2023/01/05 03:17:32;;;;;;;11.10;2.57;;;10.20;99.90;;;;;;5074330;28;20628;-82
2023/01/05 03:20:00;;;;;;;12.57;3.20;;;10.20;99.90;;;;;;5064070;28;20708;-82
2023/01/05 03:36:40;;;;;;;14.57;3.37;;;9.90;99.90;;;;;;5058685;28;20205;-82
2023/01/05 03:39:10;;;;;;;13.60;3.13;;;9.90;99.90;;;;;;5053230;28;20631;-82
2023/01/05 03:41:38;;;;;;;12.57;3.10;;;10.00;99.90;;;;;;5054695;28;20207;-81
2023/01/05 03:44:05;;;;;;;10.90;3.30;;;9.90;99.90;;;;;;5056579;28;20226;-83
2023/01/05 03:46:32;;;;;;;14.00;3.40;;;9.90;99.90;;;;;;5074744;28;20206;-82
2023/01/05 03:49:00;;;;;;;11.53;2.97;;;10.00;99.90;;;;;;5074344;28;20205;-81
2023/01/05 03:51:27;;;;;;;13.40;3.00;;;10.00;99.90;;;;;;5074267;28;20224;-82
2023/01/05 03:53:54;;;;;;;15.50;3.23;;;10.00;99.90;;;;;;5074737;28;20293;-82
2023/01/05 03:56:21;;;;;;;12.03;3.23;;;10.10;99.90;;;;;;5074738;28;20206;-82
2023/01/05 03:58:47;;;;;;;11.13;2.87;;;10.10;99.90;;;;;;5061579;28;20234;-82
2023/01/05 04:01:14;;;;;;;12.30;2.80;;;10.10;99.90;;;;;;5054581;28;20290;-81
2023/01/05 04:03:41;;;;;;;11.53;3.30;;;10.20;99.90;;;;;;5053741;28;20234;-81
2023/01/05 04:06:09;;;;;;;11.60;3.20;;;10.30;99.90;;;;;;5054345;28;20246;-82
2023/01/05 04:08:36;;;;;;;11.50;2.70;;;10.20;99.90;;;;;;5054905;28;20242;-87
2023/01/05 04:11:14;;;;;;;13.23;3.13;;;10.20;99.90;;;;;;5055505;28;20209;-82
2023/01/05 04:13:41;;;;;;;9.70;2.27;;;10.20;99.90;;;;;;5054432;28;20227;-81
2023/01/05 04:16:08;;;;;;;12.23;3.20;;;10.10;99.90;;;;;;5054620;28;20214;-81
2023/01/05 04:18:35;;;;;;;9.17;3.03;;;10.20;99.90;;;;;;5059906;28;20190;-84
2023/01/05 04:21:02;;;;;;;16.63;3.10;;;10.10;99.90;;;;;;5074451;28;20202;-80
2023/01/05 04:23:30;;;;;;;13.03;4.20;;;10.20;99.90;;;;;;5073932;28;20237;-81
2023/01/05 04:25:57;;;;;;;11.80;2.73;;;10.20;99.90;;;;;;5074480;28;20210;-82
2023/01/05 04:28:23;;;;;;;10.90;2.67;;;10.20;99.90;;;;;;5061840;28;20654;-83
2023/01/05 04:30:51;;;;;;;11.03;3.27;;;10.20;99.90;;;;;;5075842;28;20198;-81
2023/01/05 04:33:18;;;;;;;11.97;3.67;;;10.20;99.90;;;;;;5075315;28;20233;-81
2023/01/05 04:35:45;;;;;;;11.13;2.67;;;10.10;99.90;;;;;;5075549;28;20310;-81
2023/01/05 04:38:12;;;;;;;15.07;3.20;;;10.10;99.90;;;;;;5075342;28;20198;-81
2023/01/05 04:40:40;;;;;;;9.87;3.10;;;10.10;99.90;;;;;;5074683;28;20244;-81
2023/01/05 04:43:08;;;;;;;10.27;2.83;;;10.10;99.90;;;;;;5075175;28;20700;-81
2023/01/05 04:45:34;;;;;;;13.87;2.90;;;10.20;99.90;;;;;;5075285;28;20228;-81
2023/01/05 04:48:01;;;;;;;10.63;3.17;;;10.00;99.90;;;;;;5075415;28;20198;-81
2023/01/05 04:50:28;;;;;;;18.60;4.73;;;10.00;99.90;;;;;;5074714;28;20209;-81
2023/01/05 04:52:55;;;;;;;13.37;3.83;;;10.00;99.90;;;;;;5074983;28;20229;-80
2023/01/05 04:55:22;;;;;;;13.93;3.50;;;10.20;99.90;;;;;;5075172;28;20194;-81
2023/01/05 04:57:50;;;;;;;12.83;3.07;;;10.20;99.90;;;;;;5075546;28;20203;-81
2023/01/05 05:00:17;;;;;;;12.20;2.40;;;10.20;99.90;;;;;;5075533;28;20226;-81
2023/01/05 05:02:44;;;;;;;10.23;2.23;;;10.20;99.90;;;;;;5075305;28;20701;-81
2023/01/05 05:05:11;;;;;;;11.00;2.43;;;10.20;99.90;;;;;;5075025;28;20203;-81
2023/01/05 05:07:38;;;;;;;11.47;2.27;;;10.20;99.90;;;;;;5075181;28;20571;-81
2023/01/05 05:10:06;;;;;;;11.10;2.63;;;10.20;99.90;;;;;;5074990;28;20277;-81
2023/01/05 05:12:32;;;;;;;9.60;2.07;;;10.10;99.90;;;;;;5074096;28;20218;-81
2023/01/05 05:15:00;;;;;;;9.87;2.33;;;10.10;99.90;;;;;;5075209;28;20206;-81
2023/01/05 05:17:27;;;;;;;11.27;3.13;;;10.10;99.90;;;;;;5075371;28;20205;-81
2023/01/05 05:19:54;;;;;;;12.27;3.00;;;10.00;99.90;;;;;;5074352;28;20222;-81
2023/01/05 05:22:21;;;;;;;12.53;2.77;;;10.10;99.90;;;;;;5074096;28;20605;-81
2023/01/05 05:24:48;;;;;;;9.57;2.63;;;10.10;99.90;;;;;;5066675;28;20206;-81
2023/01/05 05:27:14;;;;;;;11.90;3.10;;;10.00;99.90;;;;;;5074227;28;20198;-82
2023/01/05 05:29:41;;;;;;;9.93;2.27;;;10.00;99.90;;;;;;5068055;28;20205;-81
2023/01/05 05:32:10;;;;;;;10.63;2.50;;;9.90;99.90;;;;;;5073718;28;20222;-81
2023/01/05 05:34:36;;;;;;;8.90;2.20;;;9.80;99.90;;;;;;5078537;28;20220;-81
2023/01/05 05:37:03;;;;;;;10.43;2.87;;;9.80;99.90;;;;;;5077314;28;20234;-81
2023/01/05 05:39:30;;;;;;;11.47;2.67;;;9.80;99.90;;;;;;5077988;28;20222;-81
2023/01/05 05:41:57;;;;;;;9.50;3.47;;;9.80;99.90;;;;;;5078471;28;20896;-81
2023/01/05 05:44:23;;;;;;;7.93;2.30;;;9.80;99.90;;;;;;5078765;28;20194;-81
2023/01/05 05:46:51;;;;;;;9.10;2.47;;;9.80;99.90;;;;;;5082453;28;20293;-85
2023/01/05 05:49:19;;;;;;;11.97;2.80;;;9.90;99.90;;;;;;5062121;28;20277;-82
2023/01/05 05:51:46;;;;;;;10.03;2.73;;;9.90;99.90;;;;;;5065170;28;20595;-83
2023/01/05 05:54:13;;;;;;;11.73;3.03;;;9.90;99.90;;;;;;5055783;28;20210;-82
2023/01/05 05:56:40;;;;;;;15.70;3.73;;;9.80;99.90;;;;;;5078750;28;20210;-83
2023/01/05 05:59:07;;;;;;;10.23;2.43;;;9.90;99.90;;;;;;5077725;28;20210;-83
2023/01/05 06:01:34;;;;;;;10.63;2.70;;;10.00;99.90;;;;;;5077178;28;20222;-83
2023/01/05 06:04:00;;;;;;;15.07;2.80;;;10.00;99.90;;;;;;5077277;28;20208;-83
2023/01/05 06:06:29;;;;;;;10.10;2.73;;;10.00;99.90;;;;;;5078251;28;20194;-84
2023/01/05 06:08:56;;;;;;;11.73;2.73;;;10.10;99.90;;;;;;5077290;28;20217;-84
2023/01/05 06:11:22;;;;;;;9.13;2.40;;;10.00;99.90;;;;;;5075724;28;20626;-84
2023/01/05 06:13:49;;;;;;;10.00;2.70;;;10.10;99.90;;;;;;5077319;28;20252;-83
2023/01/05 06:16:16;;;;;;;8.90;1.83;;;10.10;99.90;;;;;;5076912;28;20212;-83
2023/01/05 06:18:43;;;;;;;8.80;2.40;;;10.10;99.90;;;;;;5076672;28;20210;-83
2023/01/05 06:21:09;;;;;;;10.37;2.53;;;10.10;99.90;;;;;;5076412;28;20229;-82
2023/01/05 06:23:38;;;;;;;13.17;2.93;;;10.10;99.90;;;;;;5075168;28;20226;-84
2023/01/05 06:26:05;;;;;;;8.20;2.00;;;10.10;99.90;;;;;;5077252;28;20198;-83
2023/01/05 06:28:31;;;;;;;8.13;2.40;;;10.00;99.90;;;;;;5076691;28;20206;-83
2023/01/05 06:30:59;;;;;;;8.13;2.67;;;10.00;99.90;;;;;;5077326;28;20201;-84
2023/01/05 06:33:26;;;;;;;12.83;2.47;;;10.10;99.90;;;;;;5076639;28;20219;-83
2023/01/05 06:35:52;;;;;;;10.30;2.60;;;10.00;99.90;;;;;;5076828;28;20206;-83
2023/01/05 06:38:20;;;;;;;5.47;2.20;;;10.00;99.90;;;;;;5075719;28;20232;-83
2023/01/05 06:40:48;;;;;;;9.17;2.50;;;10.10;99.90;;;;;;5077693;28;20269;-83
2023/01/05 06:43:15;;;;;;;9.27;2.80;;;10.20;99.90;;;;;;5075179;28;20225;-83
2023/01/05 06:45:42;;;;;;;9.60;2.30;;;10.00;99.90;;;;;;5076385;28;20206;-83
2023/01/05 06:48:08;;;;;;;7.13;2.37;;;10.10;99.90;;;;;;5075183;28;20351;-84
2023/01/05 06:50:35;;;;;;;12.67;2.80;;;10.10;99.90;;;;;;5075532;28;20295;-82
2023/01/05 06:53:02;;;;;;;7.97;2.50;;;10.10;99.90;;;;;;5074302;28;20226;-84
2023/01/05 06:55:29;;;;;;;10.43;2.70;;;10.10;99.90;;;;;;5074502;28;20281;-83
2023/01/05 06:57:57;;;;;;;11.40;2.30;;;10.00;99.90;;;;;;5056694;28;20206;-83
2023/01/05 07:00:24;;;;;;;6.53;2.23;;;10.00;99.90;;;;;;5055959;28;20223;-83
2023/01/05 07:02:51;;;;;;;8.50;2.40;;;9.90;99.90;;;;;;5070005;28;20234;-83
2023/01/05 07:05:18;;;;;;;6.40;2.17;;;9.80;99.90;;;;;;5073015;28;20298;-83
2023/01/05 07:07:45;;;;;;;9.80;2.83;;;9.70;99.90;;;;;;5073958;28;20206;-83
2023/01/05 07:10:11;;;;;;;9.57;2.90;;;9.70;99.90;;;;;;5074379;28;20204;-84
2023/01/05 07:12:38;;;;;;;11.67;2.67;;;9.70;99.90;;;;;;5074941;28;20218;-84
2023/01/05 07:15:08;;;;;;;9.87;2.40;;;9.70;99.90;;;;;;5076693;28;20556;-83
2023/01/05 07:17:36;;;;;;;14.43;2.63;;;9.70;99.90;;;;;;5075431;28;20203;-84
2023/01/05 07:20:03;;;;;;;9.90;2.30;;;9.80;99.90;;;;;;5077193;28;20634;-84
2023/01/05 07:22:30;;;;;;;13.23;2.20;;;9.90;99.90;;;;;;5074486;28;20296;-83
2023/01/05 07:24:57;;;;;;;10.40;2.67;;;9.90;99.90;;;;;;5074386;28;20195;-83
2023/01/05 07:27:24;;;;;;;7.07;2.43;;;9.90;99.90;;;;;;5076810;28;20209;-83
2023/01/05 07:29:51;;;;;;;11.00;2.37;;;9.90;99.90;;;;;;5074665;28;20194;-83
2023/01/05 07:32:20;;;;;;;8.53;1.97;;;9.80;99.90;;;;;;5075149;28;20223;-84
2023/01/05 07:34:46;;;;;;;7.47;2.47;;;9.70;99.90;;;;;;5075180;28;20201;-83
2023/01/05 07:37:14;;;;;;;12.17;2.37;;;9.80;99.90;;;;;;5074680;28;20198;-82
2023/01/05 07:39:41;;;;;;;6.53;2.10;;;9.80;99.90;;;;;;5075396;28;20213;-84
2023/01/05 07:42:08;;;;;;;5.93;2.10;;;9.90;99.90;;;;;;5075091;28;20230;-83
2023/01/05 07:44:34;;;;;;;7.37;2.10;;;10.00;99.90;;;;;;5075414;28;20194;-83
2023/01/05 07:47:01;;;;;;;8.77;2.10;;;9.90;99.90;;;;;;5075816;28;20212;-83
2023/01/05 07:49:30;;;;;;;7.67;2.27;;;9.90;99.90;;;;;;5075728;28;20588;-83
2023/01/05 07:51:56;;;;;;;6.73;2.23;;;9.90;99.90;;;;;;5074874;28;20286;-83
2023/01/05 07:54:23;;;;;;;5.90;1.93;;;10.00;99.90;;;;;;5075618;28;20216;-83
2023/01/05 07:56:50;;;;;;;12.07;2.70;;;10.00;99.90;;;;;;5075399;28;20281;-84
2023/01/05 07:59:17;;;;;;;6.60;2.00;;;10.00;99.90;;;;;;5074864;28;20202;-83
2023/01/05 08:01:44;;;;;;;7.43;1.97;;;10.00;99.90;;;;;;5075466;28;20252;-84
2023/01/05 08:04:11;;;;;;;5.70;2.20;;;10.10;99.90;;;;;;5076094;28;20212;-83
2023/01/05 08:06:39;;;;;;;6.00;2.03;;;10.10;99.90;;;;;;5073750;28;20210;-83
2023/01/05 08:11:47;;;;;;;7.00;2.20;;;10.30;99.90;;;;;;5073106;28;20319;-84
2023/01/05 08:14:13;;;;;;;8.13;2.27;;;10.10;99.90;;;;;;5075766;28;20206;-83
2023/01/05 08:16:41;;;;;;;4.57;2.03;;;10.10;99.90;;;;;;5074808;28;20218;-83
2023/01/05 08:19:09;;;;;;;11.03;2.40;;;10.10;99.90;;;;;;5075459;28;20212;-84
2023/01/05 08:21:36;;;;;;;8.07;2.40;;;10.10;99.90;;;;;;5069900;28;20233;-83
2023/01/05 08:24:05;;;;;;;11.03;2.70;;;10.10;99.90;;;;;;5075005;28;20225;-84
2023/01/05 08:26:31;;;;;;;7.80;1.97;;;10.10;99.90;;;;;;5072690;28;20218;-82
2023/01/05 08:28:59;;;;;;;8.23;2.37;;;10.20;99.90;;;;;;5075711;28;20201;-82
2023/01/05 08:31:28;;;;;;;6.63;1.67;;;10.30;99.90;;;;;;5074184;28;20292;-84
2023/01/05 08:33:56;;;;;;;7.30;2.03;;;10.20;99.90;;;;;;5055224;28;20219;-84
2023/01/05 08:36:24;;;;;;;14.60;2.97;;;10.20;99.90;;;;;;5054899;28;20211;-83
2023/01/05 08:38:52;;;;;;;10.37;2.30;;;10.20;99.90;;;;;;5054790;28;20286;-83
2023/01/05 08:41:22;;;;;;;7.87;3.70;;;10.20;99.90;;;;;;5053510;28;20838;-83
2023/01/05 08:43:50;;;;;;;8.83;2.53;;;10.10;99.90;;;;;;5054111;28;20750;-83
2023/01/05 08:46:17;;;;;;;10.07;2.63;;;10.00;99.90;;;;;;5053970;28;20202;-82
2023/01/05 08:48:47;;;;;;;8.00;2.30;;;10.00;99.90;;;;;;5054062;28;20215;-84
2023/01/05 08:51:14;;;;;;;7.03;2.67;;;10.00;99.90;;;;;;5055038;28;20205;-83
2023/01/05 08:53:41;;;;;;;7.00;2.10;;;10.00;99.90;;;;;;5054486;28;20602;-83
2023/01/05 08:56:08;;;;;;;10.60;2.17;;;10.10;99.90;;;;;;5055058;28;20217;-82
2023/01/05 08:58:37;;;;;;;8.87;3.10;;;10.20;99.90;;;;;;5074957;28;20206;-84
2023/01/05 09:01:06;;;;;;;9.63;2.40;;;10.20;99.90;;;;;;5074052;28;20222;-83
2023/01/05 09:03:33;;;;;;;9.37;2.10;;;10.20;99.90;;;;;;5066581;28;20315;-84
2023/01/05 09:06:02;;;;;;;10.93;3.17;;;10.20;99.90;;;;;;5074217;28;20198;-83
2023/01/05 09:08:29;;;;;;;6.40;2.00;;;10.30;99.90;;;;;;5074905;28;20198;-84
2023/01/05 09:10:56;;;;;;;11.20;2.40;;;10.30;99.90;;;;;;5073551;28;20277;-83
2023/01/05 09:13:23;;;;;;;9.50;3.07;;;10.30;99.90;;;;;;5073878;28;20260;-84
2023/01/05 09:15:51;;;;;;;9.30;2.10;;;10.40;99.90;;;;;;5073646;28;20218;-83
2023/01/05 09:18:18;;;;;;;9.90;2.70;;;10.40;99.90;;;;;;5068942;28;20215;-83
2023/01/05 09:20:46;;;;;;;8.03;2.20;;;10.30;99.90;;;;;;5055179;28;20249;-84
2023/01/05 09:23:13;;;;;;;11.30;2.20;;;10.40;99.90;;;;;;5063453;28;20605;-84
2023/01/05 09:25:40;;;;;;;6.43;1.80;;;10.40;99.90;;;;;;5073638;28;20224;-84
2023/01/05 09:28:06;;;;;;;8.27;2.83;;;10.40;99.90;;;;;;5074662;28;20236;-84
2023/01/05 09:30:33;;;;;;;8.40;1.90;;;10.40;99.90;;;;;;5074093;28;20277;-81
2023/01/05 09:33:01;;;;;;;7.00;2.13;;;10.40;99.90;;;;;;5074702;28;20242;-83
2023/01/05 09:35:28;;;;;;;9.37;2.67;;;10.40;99.90;;;;;;5075523;28;20211;-83
2023/01/05 09:37:55;;;;;;;5.70;1.93;;;10.50;99.90;;;;;;5073452;28;20258;-83
2023/01/05 09:40:22;;;;;;;6.87;1.83;;;10.40;99.90;;;;;;5054770;28;20247;-83
2023/01/05 09:42:49;;;;;;;5.47;1.70;;;10.40;99.90;;;;;;5052378;28;20237;-83
2023/01/05 09:45:22;;;;;;;6.47;2.20;;;10.20;99.90;;;;;;5053968;28;20285;-84
2023/01/05 09:47:55;;;;;;;9.03;2.50;;;10.20;99.90;;;;;;5055197;28;20660;-83
2023/01/05 09:50:25;;;;;;;9.93;2.73;;;9.90;99.90;;;;;;5055726;28;20223;-84
2023/01/05 09:52:56;;;;;;;8.90;3.00;;;9.80;99.90;;;;;;5053706;28;20233;-84
2023/01/05 09:55:27;;;;;;;9.67;3.13;;;9.80;99.90;;;;;;5055169;28;20247;-84
2023/01/05 09:57:57;;;;;;;8.57;3.17;;;9.70;99.90;;;;;;5054726;28;20199;-85
2023/01/05 10:00:25;;;;;;;5.00;2.20;;;9.70;99.90;;;;;;5055357;28;20209;-83
2023/01/05 10:02:56;;;;;;;7.80;2.00;;;9.80;99.90;;;;;;5054245;28;20235;-82
2023/01/05 10:05:26;;;;;;;6.37;2.50;;;9.70;99.90;;;;;;5054387;28;20550;-83
2023/01/05 10:07:57;;;;;;;5.23;1.87;;;9.80;99.90;;;;;;5053890;28;20229;-83
2023/01/05 10:10:41;;;;;;;5.37;2.37;;;9.70;99.90;;;;;;5053512;28;20207;-83
2023/01/05 10:13:14;;;;;;;7.57;2.40;;;9.80;99.90;;;;;;5053211;28;20748;-83
2023/01/05 10:15:45;;;;;;;6.23;2.10;;;9.80;99.90;;;;;;5054751;28;20623;-83
2023/01/05 10:18:14;;;;;;;8.03;1.93;;;9.80;99.90;;;;;;5054045;28;20207;-83
2023/01/05 10:20:56;;;;;;;4.20;2.10;;;9.80;99.90;;;;;;5056887;28;20215;-83
2023/01/05 10:23:35;;;;;;;7.50;2.30;;;9.80;99.90;;;;;;5056793;28;20215;-83
2023/01/05 10:26:07;;;;;;;4.33;2.07;;;9.70;99.90;;;;;;5057550;28;20298;-83
2023/01/05 10:28:41;;;;;;;6.97;2.33;;;9.70;99.90;;;;;;5057042;28;20278;-83
2023/01/05 10:31:15;;;;;;;5.67;2.40;;;9.70;99.90;;;;;;5056980;28;20210;-83
2023/01/05 10:33:49;;;;;;;5.13;1.83;;;9.80;99.90;;;;;;5057451;28;20647;-83
2023/01/05 10:36:42;;;;;;;7.27;2.40;;;9.80;99.90;;;;;;5057236;28;20599;-82
2023/01/05 10:39:17;;;;;;;6.23;2.57;;;9.80;99.90;;;;;;5056607;28;20667;-83
2023/01/05 10:41:54;;;;;;;6.17;2.00;;;9.90;99.90;;;;;;5055677;28;20236;-83
2023/01/05 10:44:37;;;;;;;2.20;1.37;;;10.00;99.90;;;;;;5056854;28;20238;-83
2023/01/05 10:47:09;;;;;;;5.33;1.67;;;10.10;99.90;;;;;;5056501;28;20209;-83
2023/01/05 10:49:37;;;;;;;3.20;1.37;;;10.10;99.90;;;;;;5056427;28;20211;-83
2023/01/05 10:52:11;;;;;;;3.93;1.60;;;10.10;99.90;;;;;;5056598;28;20223;-83
2023/01/05 10:54:40;;;;;;;4.97;1.60;;;10.20;99.90;;;;;;5056548;28;20614;-83
2023/01/05 10:57:39;;;;;;;6.83;1.77;;;10.20;99.90;;;;;;5056114;28;20286;-83
2023/01/05 11:00:11;;;;;;;4.00;2.13;;;10.30;99.90;;;;;;5056402;28;20195;-84
2023/01/05 11:02:41;;;;;;;5.47;2.00;;;10.30;99.90;;;;;;5056394;28;20306;-83
2023/01/05 11:05:27;;;;;;;3.90;1.80;;;10.30;99.90;;;;;;5056511;28;20206;-83
2023/01/05 11:07:58;;;;;;;4.10;1.40;;;10.40;99.90;;;;;;5059140;28;20217;-83
2023/01/05 11:10:30;;;;;;;4.37;1.37;;;10.40;99.90;;;;;;5055946;28;20221;-82
2023/01/05 11:13:03;;;;;;;6.70;1.97;;;10.40;99.90;;;;;;5055711;28;20238;-82
2023/01/05 11:15:32;;;;;;;7.10;1.83;;;10.40;99.90;;;;;;5057033;28;20179;-83
2023/01/05 11:17:59;;;;;;;7.00;1.80;;;10.50;99.90;;;;;;5056724;28;20207;-83
2023/01/05 11:20:29;;;;;;;3.13;1.60;;;10.50;99.90;;;;;;5092667;28;20217;-83
2023/01/05 11:22:57;;;;;;;5.97;1.30;;;10.50;99.90;;;;;;5080118;28;20222;-82
2023/01/05 11:25:29;;;;;;;4.63;1.47;;;10.50;99.90;;;;;;5075442;28;20202;-83
2023/01/05 11:28:15;;;;;;;3.10;1.53;;;10.50;99.90;;;;;;5083403;28;20997;-83
2023/01/05 11:30:57;;;;;;;3.83;1.50;;;10.40;99.90;;;;;;5074554;28;20259;-83
2023/01/05 11:33:27;;;;;;;4.13;1.30;;;10.40;99.90;;;;;;5076601;28;20218;-83
2023/01/05 11:35:54;;;;;;;5.07;1.60;;;10.40;99.90;;;;;;5074915;28;20214;-83
2023/01/05 11:38:25;;;;;;;3.63;1.40;;;10.40;99.90;;;;;;5077684;28;20203;-83
2023/01/05 11:40:52;;;;;;;4.10;1.50;;;10.40;99.90;;;;;;5075581;28;20666;-84
2023/01/05 11:43:21;;;;;;;3.33;1.40;;;10.50;99.90;;;;;;5075183;28;20253;-82
2023/01/05 11:45:51;;;;;;;7.13;1.60;;;10.40;99.90;;;;;;5074663;28;20204;-83
2023/01/05 11:48:21;;;;;;;4.70;1.70;;;10.40;99.90;;;;;;5075633;28;20212;-83
2023/01/05 11:50:50;;;;;;;3.20;1.33;;;10.50;99.90;;;;;;5075182;28;20210;-83
2023/01/05 11:53:25;;;;;;;5.23;1.70;;;10.50;99.90;;;;;;5070187;28;20586;-83
2023/01/05 11:56:03;;;;;;;6.30;2.30;;;10.60;99.90;;;;;;5056358;28;20206;-82
2023/01/05 11:58:34;;;;;;;6.20;1.73;;;10.70;99.90;;;;;;5056027;28;20218;-83
2023/01/05 12:01:39;;;;;;;3.13;1.70;;;10.80;99.90;;;;;;5055533;28;20290;-83
2023/01/05 12:04:21;;;;;;;6.80;1.60;;;10.80;99.90;;;;;;5075864;28;20191;-84
2023/01/05 12:07:01;;;;;;;9.07;3.30;;;10.90;99.90;;;;;;5079851;28;20206;-84
2023/01/05 12:09:32;;;;;;;6.20;2.00;;;10.90;99.90;;;;;;5078080;28;20192;-83
2023/01/05 12:12:14;;;;;;;5.83;1.63;;;10.90;99.90;;;;;;5074777;28;20230;-83
2023/01/05 12:14:58;;;;;;;6.17;1.87;;;10.80;99.90;;;;;;5078063;28;20270;-82
2023/01/05 12:17:30;;;;;;;8.30;2.10;;;10.90;99.90;;;;;;5074031;28;20202;-82
2023/01/05 12:20:10;;;;;;;5.73;2.13;;;11.00;99.90;;;;;;5078137;28;20206;-83
2023/01/05 12:23:02;;;;;;;7.17;1.90;;;10.90;99.90;;;;;;5074372;28;20226;-82
2023/01/05 12:25:48;;;;;;;4.70;1.80;;;10.90;99.90;;;;;;5066623;28;20632;-81
2023/01/05 12:28:41;;;;;;;5.50;1.83;;;10.90;99.90;;;;;;5077355;28;20198;-82
2023/01/05 12:31:30;;;;;;;4.77;1.40;;;10.90;99.90;;;;;;5063046;28;20209;-82
2023/01/05 12:34:11;;;;;;;4.67;1.43;;;10.90;99.90;;;;;;5073997;28;20198;-81
2023/01/05 12:36:59;;;;;;;7.83;2.10;;;10.90;99.90;;;;;;5074107;28;20274;-84
2023/01/05 12:39:52;;;;;;;8.53;2.93;;;10.90;99.90;;;;;;5077125;28;20262;-82
2023/01/05 12:42:35;;;;;;;5.77;1.80;;;10.90;99.90;;;;;;5076308;28;20229;-83
2023/01/05 12:45:21;;;;;;;5.37;1.90;;;11.30;99.90;;;;;;5073723;28;20225;-81
2023/01/05 12:47:55;;;;;;;4.47;1.90;;;11.30;99.90;;;;;;5079954;28;20178;-81
2023/01/05 12:50:28;;;;;;;2.27;1.57;;;11.20;99.90;;;;;;5078588;28;20709;-81
2023/01/05 12:53:01;;;;;;;5.33;2.00;;;11.10;99.90;;;;;;5074833;28;20222;-81
2023/01/05 12:55:31;;;;;;;5.93;2.30;;;11.10;99.90;;;;;;5057340;28;20209;-82
2023/01/05 12:58:04;;;;;;;6.27;2.33;;;11.10;99.90;;;;;;5072140;28;20240;-81
2023/01/05 13:00:36;;;;;;;5.87;2.23;;;11.10;99.90;;;;;;5076767;28;20190;-81
2023/01/05 13:03:05;;;;;;;5.90;2.60;;;11.30;99.90;;;;;;5076855;28;20310;-82
2023/01/05 13:05:37;;;;;;;4.97;1.90;;;11.20;99.90;;;;;;5077241;28;20211;-82
2023/01/05 13:08:14;;;;;;;5.07;1.97;;;11.30;99.90;;;;;;5077628;28;20193;-82
2023/01/05 13:10:49;;;;;;;6.67;1.90;;;11.10;99.90;;;;;;5077633;28;20218;-81
2023/01/05 13:13:22;;;;;;;8.00;2.50;;;11.10;99.90;;;;;;5075985;28;20209;-84
2023/01/05 13:15:55;;;;;;;4.57;1.80;;;11.00;99.90;;;;;;5079657;28;20201;-82
2023/01/05 13:18:25;;;;;;;5.27;1.83;;;10.90;99.90;;;;;;5073346;28;20577;-82
2023/01/05 13:20:55;;;;;;;4.97;2.20;;;10.80;99.90;;;;;;5078026;28;20227;-83
2023/01/05 13:23:26;;;;;;;7.47;2.00;;;10.80;99.90;;;;;;5081922;28;20225;-83
2023/01/05 13:25:58;;;;;;;3.27;1.70;;;10.80;99.90;;;;;;5081496;28;20198;-83
2023/01/05 13:28:26;;;;;;;6.37;1.87;;;10.70;99.90;;;;;;5077140;28;20202;-82
2023/01/05 13:31:11;;;;;;;6.37;1.90;;;10.70;99.90;;;;;;5080418;28;20206;-83
2023/01/05 13:34:21;;;;;;;4.43;2.00;;;10.70;99.90;;;;;;5078891;28;20233;-83